createdAt,value
2019-03-23T00:01:43.348Z,84.47
2019-03-23T00:04:13.698Z,86.53
2019-03-23T00:06:44.075Z,99.13
2019-03-23T00:09:14.501Z,84.87
2019-03-23T00:11:44.822Z,70.73
2019-03-23T00:14:15.187Z,63.47
2019-03-23T00:16:45.608Z,68.20
2019-03-23T00:19:15.972Z,70.23
2019-03-23T00:21:46.351Z,64.00
2019-03-23T00:24:16.723Z,58.87
2019-03-23T00:26:47.095Z,62.17
2019-03-23T00:29:17.457Z,65.27
2019-03-23T00:31:47.840Z,57.23
2019-03-23T00:34:18.281Z,54.77
2019-03-23T00:36:48.656Z,50.83
2019-03-23T00:39:19.055Z,48.37
2019-03-23T00:41:49.422Z,44.33
2019-03-23T00:44:19.799Z,40.40
2019-03-23T00:46:50.975Z,45.80
2019-03-23T00:49:21.402Z,41.17
2019-03-23T00:51:51.776Z,35.60
2019-03-23T00:54:22.159Z,49.60
2019-03-23T00:56:52.518Z,66.43
2019-03-23T00:59:22.885Z,41.60
2019-03-23T01:01:53.248Z,59.23
2019-03-23T01:04:23.629Z,41.67
2019-03-23T01:06:53.995Z,34.13
2019-03-23T01:09:24.380Z,39.27
2019-03-23T01:11:54.746Z,37.77
2019-03-23T01:14:25.149Z,34.33
2019-03-23T01:16:55.531Z,34.70
2019-03-23T01:19:25.905Z,31.93
2019-03-23T01:21:56.293Z,31.37
2019-03-23T01:24:26.662Z,31.50
2019-03-23T01:26:57.065Z,27.97
2019-03-23T01:29:27.437Z,36.57
2019-03-23T01:31:57.830Z,48.20
2019-03-23T01:34:28.193Z,41.07
2019-03-23T01:37:02.663Z,37.33
2019-03-23T01:39:30.612Z,33.20
2019-03-23T01:42:00.980Z,31.17
2019-03-23T01:44:31.345Z,27.07
2019-03-23T01:47:01.707Z,25.73
2019-03-23T01:49:32.060Z,26.87
2019-03-23T01:52:02.429Z,24.30
2019-03-23T01:54:32.798Z,27.77
2019-03-23T01:57:03.162Z,25.60
2019-03-23T01:59:33.532Z,26.07
2019-03-23T02:02:03.938Z,25.87
2019-03-23T02:04:34.314Z,27.37
2019-03-23T02:07:13.462Z,26.93
2019-03-23T02:09:37.159Z,24.17
2019-03-23T02:12:07.523Z,27.03
2019-03-23T02:14:37.906Z,24.63
2019-03-23T02:17:08.284Z,25.60
2019-03-23T02:19:38.655Z,19.93
2019-03-23T02:22:09.035Z,22.73
2019-03-23T02:24:39.511Z,19.77
2019-03-23T02:27:09.891Z,20.57
2019-03-23T02:29:40.256Z,21.17
2019-03-23T02:32:10.627Z,21.60
2019-03-23T02:34:40.996Z,21.67
2019-03-23T02:37:11.343Z,24.53
2019-03-23T02:39:41.717Z,23.27
2019-03-23T02:42:12.100Z,22.17
2019-03-23T02:44:42.537Z,23.77
2019-03-23T02:47:12.901Z,27.47
2019-03-23T02:49:43.271Z,25.50
2019-03-23T02:52:13.644Z,26.50
2019-03-23T02:54:43.996Z,27.67
2019-03-23T02:57:14.366Z,31.20
2019-03-23T02:59:44.741Z,26.73
2019-03-23T03:02:15.143Z,32.10
2019-03-23T03:04:45.510Z,31.40
2019-03-23T03:07:15.884Z,27.20
2019-03-23T03:09:46.259Z,31.90
2019-03-23T03:12:16.614Z,25.40
2019-03-23T03:14:48.009Z,28.13
2019-03-23T03:17:18.344Z,23.93
2019-03-23T03:19:48.701Z,23.03
2019-03-23T03:22:19.078Z,24.60
2019-03-23T03:24:49.456Z,27.67
2019-03-23T03:27:19.836Z,26.97
2019-03-23T03:29:50.238Z,27.13
2019-03-23T03:32:20.639Z,27.57
2019-03-23T03:34:51.028Z,30.60
2019-03-23T03:37:21.377Z,29.87
2019-03-23T03:39:51.749Z,28.80
2019-03-23T03:42:22.117Z,31.57
2019-03-23T03:44:52.524Z,33.43
2019-03-23T03:47:22.960Z,33.93
2019-03-23T03:49:53.325Z,28.80
2019-03-23T03:52:23.729Z,29.57
2019-03-23T03:54:54.104Z,31.37
2019-03-23T03:57:24.444Z,27.07
2019-03-23T03:59:54.793Z,28.77
2019-03-23T04:02:25.194Z,30.13
2019-03-23T04:04:55.546Z,28.63
2019-03-23T04:07:25.929Z,29.37
2019-03-23T04:09:56.294Z,27.57
2019-03-23T04:12:26.676Z,32.00
2019-03-23T04:14:57.051Z,26.47
2019-03-23T04:17:28.083Z,31.60
2019-03-23T04:19:58.462Z,32.40
2019-03-23T04:22:28.844Z,28.27
2019-03-23T04:24:59.198Z,31.97
2019-03-23T04:27:29.569Z,31.73
2019-03-23T04:29:59.939Z,30.17
2019-03-23T04:32:30.355Z,34.87
2019-03-23T04:35:00.713Z,32.03
2019-03-23T04:37:31.145Z,31.87
2019-03-23T04:40:01.525Z,33.77
2019-03-23T04:42:31.947Z,37.20
2019-03-23T04:45:02.334Z,34.27
2019-03-23T04:47:32.688Z,36.13
2019-03-23T04:50:03.425Z,39.43
2019-03-23T04:52:33.808Z,39.70
2019-03-23T04:55:07.753Z,35.37
2019-03-23T04:57:38.574Z,37.70
2019-03-23T05:00:12.071Z,34.47
2019-03-23T05:02:42.490Z,34.57
2019-03-23T05:05:13.024Z,39.60
2019-03-23T05:07:45.271Z,42.47
2019-03-23T05:10:15.934Z,37.80
2019-03-23T05:12:46.307Z,40.20
2019-03-23T05:15:16.904Z,33.90
2019-03-23T05:17:47.277Z,40.33
2019-03-23T05:20:26.140Z,40.13
2019-03-23T05:22:56.505Z,39.40
2019-03-23T05:25:28.314Z,39.73
2019-03-23T05:27:58.969Z,38.63
2019-03-23T05:30:29.418Z,41.70
2019-03-23T05:33:01.759Z,37.90
2019-03-23T05:35:32.183Z,41.43
2019-03-23T05:38:02.521Z,42.00
2019-03-23T05:40:32.905Z,48.40
2019-03-23T05:43:03.274Z,44.57
2019-03-23T05:45:33.655Z,42.30
2019-03-23T05:48:04.115Z,48.03
2019-03-23T05:50:34.606Z,57.57
2019-03-23T05:53:05.307Z,53.63
2019-03-23T05:55:35.673Z,54.13
2019-03-23T05:58:06.074Z,52.80
2019-03-23T06:00:36.477Z,49.43
2019-03-23T06:03:06.843Z,47.83
2019-03-23T06:05:37.200Z,50.33
2019-03-23T06:08:07.553Z,50.83
2019-03-23T06:10:37.924Z,47.97
2019-03-23T06:13:08.502Z,55.33
2019-03-23T06:15:38.902Z,51.10
2019-03-23T06:18:09.251Z,60.13
2019-03-23T06:20:39.626Z,57.47
2019-03-23T06:23:09.999Z,56.43
2019-03-23T06:25:40.393Z,54.30
2019-03-23T06:28:12.201Z,48.87
2019-03-23T06:30:42.573Z,50.70
2019-03-23T06:33:12.947Z,53.17
2019-03-23T06:35:43.329Z,55.57
2019-03-23T06:38:13.714Z,76.53
2019-03-23T06:40:44.107Z,101.10
2019-03-23T06:43:14.489Z,88.97
2019-03-23T06:45:44.867Z,108.63
2019-03-23T06:48:15.269Z,87.83
2019-03-23T06:50:45.626Z,88.57
2019-03-23T06:53:15.992Z,76.20
2019-03-23T06:55:46.369Z,68.43
2019-03-23T06:58:16.750Z,63.27
2019-03-23T07:00:47.130Z,58.37
2019-03-23T07:03:17.544Z,65.23
2019-03-23T07:05:47.754Z,64.77
2019-03-23T07:08:18.133Z,63.03
2019-03-23T07:10:48.608Z,71.63
2019-03-23T07:13:18.992Z,64.80
2019-03-23T07:15:49.340Z,64.10
2019-03-23T07:18:19.714Z,60.40
2019-03-23T07:20:50.064Z,69.27
2019-03-23T07:23:20.444Z,67.07
2019-03-23T07:25:50.813Z,79.47
2019-03-23T07:28:21.181Z,70.63
2019-03-23T07:30:51.562Z,66.13
2019-03-23T07:33:21.949Z,69.50
2019-03-23T07:35:52.318Z,67.13
2019-03-23T07:38:22.939Z,64.30
2019-03-23T07:40:53.291Z,68.50
2019-03-23T07:43:23.658Z,64.80
2019-03-23T07:45:54.093Z,71.33
2019-03-23T07:48:24.470Z,68.17
2019-03-23T07:50:54.868Z,74.90
2019-03-23T07:53:25.247Z,72.43
2019-03-23T07:55:56.240Z,69.77
2019-03-23T07:58:26.638Z,63.83
2019-03-23T08:00:57.030Z,68.03
2019-03-23T08:03:27.426Z,65.60
2019-03-23T08:05:58.331Z,66.33
2019-03-23T08:08:28.681Z,64.13
2019-03-23T08:10:59.037Z,66.57
2019-03-23T08:13:29.466Z,67.20
2019-03-23T08:15:59.969Z,65.23
2019-03-23T08:18:30.341Z,62.63
2019-03-23T08:21:00.727Z,60.73
2019-03-23T08:23:31.098Z,66.97
2019-03-23T08:26:01.464Z,64.77
2019-03-23T08:28:32.539Z,65.73
2019-03-23T08:31:02.859Z,63.10
2019-03-23T08:33:33.243Z,62.30
2019-03-23T08:36:03.648Z,68.47
2019-03-23T08:38:36.309Z,58.92
2019-03-23T08:41:06.684Z,58.10
2019-03-23T08:43:37.129Z,61.40
2019-03-23T08:46:07.493Z,59.80
2019-03-23T08:48:37.928Z,59.60
2019-03-23T08:51:08.292Z,63.23
2019-03-23T08:53:38.655Z,60.03
2019-03-23T08:56:09.023Z,60.33
2019-03-23T08:58:38.452Z,58.50
2019-03-23T09:01:08.833Z,56.80
2019-03-23T09:03:39.217Z,59.60
2019-03-23T09:06:09.593Z,59.33
2019-03-23T09:08:40.117Z,61.60
2019-03-23T09:11:20.250Z,59.03
2019-03-23T09:13:42.604Z,61.13
2019-03-23T09:16:13.008Z,64.10
2019-03-23T09:18:43.409Z,55.78
2019-03-23T09:21:13.789Z,53.55
2019-03-23T09:23:44.222Z,58.40
2019-03-23T09:26:14.768Z,56.10
2019-03-23T09:28:45.199Z,58.08
2019-03-23T09:31:15.589Z,60.95
2019-03-23T09:33:45.968Z,60.05
2019-03-23T09:36:16.347Z,60.65
2019-03-23T09:38:46.708Z,60.12
2019-03-23T09:41:17.072Z,64.85
2019-03-23T09:43:48.805Z,60.50
2019-03-23T09:46:19.172Z,58.58
2019-03-23T09:48:49.541Z,60.52
2019-03-23T09:51:19.918Z,56.10
2019-03-23T09:53:50.292Z,57.43
2019-03-23T09:56:20.650Z,64.92
2019-03-23T09:58:52.080Z,61.25
2019-03-23T10:01:22.447Z,67.58
2019-03-23T10:03:52.802Z,63.05
2019-03-23T10:06:23.168Z,60.48
2019-03-23T10:08:53.538Z,55.75
2019-03-23T10:11:24.880Z,59.38
2019-03-23T10:13:55.271Z,53.13
2019-03-23T10:16:25.668Z,55.40
2019-03-23T10:18:56.017Z,60.03
2019-03-23T10:21:26.376Z,59.10
2019-03-23T10:23:56.744Z,52.43
2019-03-23T10:26:28.976Z,65.42
2019-03-23T10:28:59.367Z,61.90
2019-03-23T10:31:29.735Z,55.50
2019-03-23T10:34:00.115Z,52.30
2019-03-23T10:36:30.623Z,53.42
2019-03-23T10:39:01.016Z,54.33
2019-03-23T10:41:32.469Z,52.20
2019-03-23T10:44:03.011Z,66.87
2019-03-23T10:46:33.680Z,62.90
2019-03-23T10:49:04.349Z,58.90
2019-03-23T10:51:34.708Z,55.00
2019-03-23T10:54:05.078Z,54.97
2019-03-23T10:56:35.466Z,54.00
2019-03-23T10:59:05.841Z,62.90
2019-03-23T11:01:36.231Z,40.00
2019-03-23T11:04:06.609Z,49.10
2019-03-23T11:06:37.024Z,55.40
2019-03-23T11:09:07.421Z,52.23
2019-03-23T11:11:37.867Z,51.73
2019-03-23T11:14:08.238Z,48.00
2019-03-23T11:16:38.686Z,51.67
2019-03-23T11:19:13.420Z,50.63
2019-03-23T11:21:41.108Z,50.20
2019-03-23T11:24:11.454Z,56.73
2019-03-23T11:26:41.831Z,47.87
2019-03-23T11:29:12.205Z,53.60
2019-03-23T11:31:42.607Z,54.83
2019-03-23T11:34:17.743Z,48.23
2019-03-23T11:36:45.684Z,48.87
2019-03-23T11:39:16.055Z,52.37
2019-03-23T11:41:46.529Z,42.73
2019-03-23T11:44:16.961Z,47.57
2019-03-23T11:46:48.746Z,42.73
2019-03-23T11:49:19.116Z,38.93
2019-03-23T11:51:49.610Z,40.77
2019-03-23T11:54:20.031Z,46.50
2019-03-23T11:56:50.711Z,44.07
2019-03-23T11:59:22.222Z,39.37
2019-03-23T12:01:52.620Z,45.33
2019-03-23T12:04:24.932Z,47.83
2019-03-23T12:06:55.357Z,47.80
2019-03-23T12:09:25.728Z,44.60
2019-03-23T12:11:56.191Z,42.13
2019-03-23T12:14:26.592Z,46.30
2019-03-23T12:16:57.296Z,47.87
2019-03-23T12:19:27.752Z,44.23
2019-03-23T12:21:58.123Z,41.87
2019-03-23T12:24:31.027Z,44.10
2019-03-23T12:27:01.680Z,46.97
2019-03-23T12:29:32.027Z,44.43
2019-03-23T12:32:02.401Z,41.50
2019-03-23T12:34:32.758Z,35.47
2019-03-23T12:37:03.112Z,35.17
2019-03-23T12:39:33.469Z,39.97
2019-03-23T12:42:03.838Z,38.93
2019-03-23T12:44:34.206Z,43.60
2019-03-23T12:47:04.583Z,37.67
2019-03-23T12:49:34.987Z,39.50
2019-03-23T12:52:05.446Z,35.77
2019-03-23T12:54:35.921Z,37.80
2019-03-23T12:57:06.436Z,48.00
2019-03-23T12:59:36.815Z,41.93
2019-03-23T13:02:07.304Z,46.63
2019-03-23T13:04:37.750Z,47.57
2019-03-23T13:07:08.203Z,37.50
2019-03-23T13:09:38.533Z,32.43
2019-03-23T13:12:08.918Z,35.77
2019-03-23T13:14:40.235Z,39.20
2019-03-23T13:17:10.629Z,39.63
2019-03-23T13:19:41.992Z,40.43
2019-03-23T13:22:12.369Z,29.53
2019-03-23T13:24:42.756Z,30.30
2019-03-23T13:27:13.146Z,28.87
2019-03-23T13:29:43.515Z,30.20
2019-03-23T13:32:13.945Z,28.57
2019-03-23T13:34:44.351Z,27.33
2019-03-23T13:37:16.180Z,27.00
2019-03-23T13:39:46.618Z,25.27
2019-03-23T13:42:17.011Z,25.57
2019-03-23T13:44:47.365Z,24.77
2019-03-23T13:47:17.745Z,24.47
2019-03-23T13:49:48.445Z,28.90
2019-03-23T13:52:19.862Z,22.90
2019-03-23T13:54:50.284Z,26.70
2019-03-23T13:57:20.633Z,22.03
2019-03-23T13:59:51.972Z,25.33
2019-03-23T14:02:22.441Z,24.33
2019-03-23T14:04:53.025Z,24.30
2019-03-23T14:07:23.408Z,21.60
2019-03-23T14:09:53.793Z,21.27
2019-03-23T14:12:24.502Z,22.80
2019-03-23T14:14:55.255Z,24.63
2019-03-23T14:17:25.872Z,25.87
2019-03-23T14:19:56.293Z,24.30
2019-03-23T14:22:26.704Z,21.33
2019-03-23T14:24:57.081Z,21.53
2019-03-23T14:27:27.472Z,22.23
2019-03-23T14:29:57.848Z,21.57
2019-03-23T14:32:28.215Z,21.60
2019-03-23T14:34:58.589Z,18.37
2019-03-23T14:37:28.953Z,19.70
2019-03-23T14:39:59.336Z,18.70
2019-03-23T14:42:29.993Z,20.80
2019-03-23T14:45:00.551Z,25.23
2019-03-23T14:47:31.001Z,18.23
2019-03-23T14:50:01.368Z,18.87
2019-03-23T14:52:31.757Z,15.90
2019-03-23T14:55:02.132Z,19.57
2019-03-23T14:57:32.502Z,16.03
2019-03-23T15:00:03.380Z,14.13
2019-03-23T15:02:34.435Z,13.90
2019-03-23T15:05:06.858Z,11.40
2019-03-23T15:07:39.021Z,13.77
2019-03-23T15:10:09.833Z,13.93
2019-03-23T15:12:40.239Z,10.73
2019-03-23T15:15:10.601Z,11.60
2019-03-23T15:17:48.428Z,11.13
2019-03-23T15:20:13.311Z,11.90
2019-03-23T15:22:43.665Z,8.73
2019-03-23T15:25:14.401Z,11.30
2019-03-23T15:27:44.781Z,11.33
2019-03-23T15:30:15.236Z,8.50
2019-03-23T15:32:45.670Z,12.00
2019-03-23T15:35:16.311Z,9.80
2019-03-23T15:37:47.468Z,11.10
2019-03-23T15:40:17.862Z,9.90
2019-03-23T15:42:48.258Z,10.30
2019-03-23T15:45:19.257Z,11.50
2019-03-23T15:47:49.639Z,13.47
2019-03-23T15:50:20.043Z,12.60
2019-03-23T15:52:52.297Z,13.20
2019-03-23T15:55:22.910Z,10.10
2019-03-23T15:57:53.230Z,13.13
2019-03-23T16:00:23.602Z,12.93
2019-03-23T16:02:54.585Z,9.63
2019-03-23T16:05:25.303Z,9.57
2019-03-23T16:07:55.756Z,14.03
2019-03-23T16:10:26.544Z,15.10
2019-03-23T16:12:57.018Z,16.27
2019-03-23T16:15:27.609Z,20.63
2019-03-23T16:17:57.976Z,19.50
2019-03-23T16:20:28.501Z,16.57
2019-03-23T16:22:59.132Z,20.00
2019-03-23T16:25:30.120Z,21.07
2019-03-23T16:28:00.857Z,22.13
2019-03-23T16:30:32.182Z,22.00
2019-03-23T16:33:02.539Z,20.10
2019-03-23T16:35:32.910Z,24.53
2019-03-23T16:38:03.289Z,25.37
2019-03-23T16:40:33.835Z,32.77
2019-03-23T16:43:06.265Z,53.80
2019-03-23T16:45:36.250Z,54.93
2019-03-23T16:48:06.647Z,66.77
2019-03-23T16:50:37.036Z,58.27
2019-03-23T16:53:07.555Z,68.53
2019-03-23T16:55:38.236Z,67.20
2019-03-23T16:58:15.934Z,72.73
2019-03-23T17:00:41.182Z,74.17
2019-03-23T17:03:12.611Z,68.87
2019-03-23T17:05:43.470Z,67.43
2019-03-23T17:08:14.150Z,71.03
2019-03-23T17:10:44.935Z,68.47
2019-03-23T17:13:15.893Z,71.73
2019-03-23T17:15:46.387Z,67.97
2019-03-23T17:18:16.825Z,68.80
2019-03-23T17:20:48.294Z,72.30
2019-03-23T17:23:18.666Z,74.47
2019-03-23T17:25:49.021Z,74.43
2019-03-23T17:28:20.521Z,79.90
2019-03-23T17:30:52.106Z,83.80
2019-03-23T17:33:22.469Z,75.70
2019-03-23T17:35:52.879Z,79.77
2019-03-23T17:38:23.227Z,79.13
2019-03-23T17:40:55.024Z,80.50
2019-03-23T17:43:25.412Z,84.30
2019-03-23T17:45:55.858Z,91.20
2019-03-23T17:48:26.249Z,88.33
2019-03-23T17:50:56.606Z,102.90
2019-03-23T17:53:26.989Z,89.30
2019-03-23T17:55:57.488Z,105.50
2019-03-23T17:58:29.424Z,94.73
2019-03-23T18:00:59.778Z,96.43
2019-03-23T18:03:30.167Z,100.13
2019-03-23T18:06:00.544Z,94.67
2019-03-23T18:08:30.917Z,101.43
2019-03-23T18:11:01.291Z,101.27
2019-03-23T18:13:32.781Z,96.27
2019-03-23T18:16:03.153Z,96.53
2019-03-23T18:18:33.527Z,87.13
2019-03-23T18:21:03.908Z,89.47
2019-03-23T18:23:34.281Z,90.10
2019-03-23T18:26:04.655Z,86.20
2019-03-23T18:28:35.026Z,94.03
2019-03-23T18:31:05.395Z,155.70
2019-03-23T18:33:35.768Z,89.83
2019-03-23T18:36:06.142Z,91.53
2019-03-23T18:38:36.874Z,88.83
2019-03-23T18:41:07.332Z,128.03
2019-03-23T18:43:38.486Z,83.93
2019-03-23T18:46:08.834Z,74.07
2019-03-23T18:48:39.212Z,79.33
2019-03-23T18:51:09.582Z,79.83
2019-03-23T18:53:39.942Z,66.47
2019-03-23T18:56:10.343Z,66.80
2019-03-23T18:58:40.746Z,69.03
2019-03-23T19:01:12.460Z,66.33
2019-03-23T19:03:42.845Z,62.90
2019-03-23T19:06:15.967Z,60.70
2019-03-23T19:08:46.427Z,60.80
2019-03-23T19:11:16.887Z,67.00
2019-03-23T19:13:48.596Z,94.43
2019-03-23T19:16:19.463Z,51.87
2019-03-23T19:18:49.846Z,59.80
2019-03-23T19:21:20.245Z,54.53
2019-03-23T19:23:50.678Z,57.83
2019-03-23T19:26:23.842Z,50.97
2019-03-23T19:28:54.265Z,50.63
2019-03-23T19:31:28.080Z,51.33
2019-03-23T19:33:58.699Z,51.17
2019-03-23T19:36:29.302Z,59.93
2019-03-23T19:39:00.226Z,52.60
2019-03-23T19:41:30.638Z,45.00
2019-03-23T19:44:01.032Z,52.43
2019-03-23T19:46:31.432Z,52.07
2019-03-23T19:49:01.801Z,48.83
2019-03-23T19:51:32.246Z,45.60
2019-03-23T19:54:02.655Z,49.20
2019-03-23T19:56:33.032Z,53.70
2019-03-23T19:59:03.494Z,52.63
2019-03-23T20:01:34.581Z,49.17
2019-03-23T20:04:06.454Z,44.87
2019-03-23T20:06:36.769Z,43.37
2019-03-23T20:09:08.513Z,50.10
2019-03-23T20:11:38.898Z,46.90
2019-03-23T20:14:09.276Z,43.93
2019-03-23T20:16:40.390Z,54.13
2019-03-23T20:19:11.649Z,52.97
2019-03-23T20:21:42.026Z,57.00
2019-03-23T20:24:12.440Z,52.77
2019-03-23T20:26:42.840Z,47.87
2019-03-23T20:29:13.243Z,47.87
2019-03-23T20:31:45.718Z,54.50
2019-03-23T20:34:16.099Z,53.13
2019-03-23T20:36:46.580Z,58.53
2019-03-23T20:39:16.963Z,55.00
2019-03-23T20:41:48.090Z,55.60
2019-03-23T20:44:18.967Z,58.07
2019-03-23T20:46:49.491Z,52.83
2019-03-23T20:49:20.364Z,57.43
2019-03-23T20:51:52.273Z,55.27
2019-03-23T20:54:24.309Z,57.00
2019-03-23T20:56:54.687Z,58.37
2019-03-23T20:59:25.165Z,53.27
2019-03-23T21:01:55.652Z,51.03
2019-03-23T21:04:26.021Z,54.43
2019-03-23T21:06:57.493Z,48.47
2019-03-23T21:09:28.199Z,58.27
2019-03-23T21:11:59.251Z,52.13
2019-03-23T21:14:29.677Z,46.23
2019-03-23T21:17:00.073Z,48.43
2019-03-23T21:19:30.983Z,42.50
2019-03-23T21:22:01.818Z,43.07
2019-03-23T21:24:33.121Z,40.60
2019-03-23T21:27:03.498Z,42.37
2019-03-23T21:29:33.877Z,41.83
2019-03-23T21:32:04.272Z,35.50
2019-03-23T21:34:34.639Z,36.30
2019-03-23T21:37:05.056Z,39.37
2019-03-23T21:39:35.453Z,35.67
2019-03-23T21:42:05.831Z,33.63
2019-03-23T21:44:36.262Z,37.50
2019-03-23T21:47:06.671Z,35.50
2019-03-23T21:49:37.431Z,33.93
2019-03-23T21:52:08.491Z,34.53
2019-03-23T21:54:38.888Z,53.03
2019-03-23T21:57:09.293Z,34.43
2019-03-23T21:59:39.694Z,32.80
2019-03-23T22:02:10.087Z,31.07
2019-03-23T22:04:42.854Z,31.33
2019-03-23T22:07:14.221Z,33.50
2019-03-23T22:09:44.654Z,30.77
2019-03-23T22:12:15.102Z,30.23
2019-03-23T22:14:45.863Z,32.77
2019-03-23T22:17:16.252Z,30.27
2019-03-23T22:19:46.624Z,37.77
2019-03-23T22:22:17.014Z,28.27
2019-03-23T22:24:47.409Z,29.03
2019-03-23T22:27:19.188Z,31.97
2019-03-23T22:29:49.742Z,30.03
2019-03-23T22:32:21.724Z,35.97
2019-03-23T22:34:52.117Z,26.40
2019-03-23T22:37:22.490Z,26.43
2019-03-23T22:39:53.594Z,30.73
2019-03-23T22:42:24.041Z,29.00
2019-03-23T22:44:54.430Z,28.53
2019-03-23T22:47:27.311Z,33.50
2019-03-23T22:49:58.685Z,34.53
2019-03-23T22:52:29.090Z,30.63
2019-03-23T22:54:59.475Z,28.53
2019-03-23T22:57:29.842Z,27.93
2019-03-23T23:00:00.578Z,28.60
2019-03-23T23:02:31.155Z,29.83
2019-03-23T23:05:01.544Z,27.07
2019-03-23T23:07:32.005Z,24.70
2019-03-23T23:10:02.316Z,28.07
2019-03-23T23:12:32.773Z,26.73
2019-03-23T23:15:04.723Z,28.03
2019-03-23T23:17:35.504Z,29.10
2019-03-23T23:20:07.237Z,28.03
2019-03-23T23:22:39.649Z,24.23
2019-03-23T23:25:10.421Z,31.47
2019-03-23T23:27:40.897Z,29.87
2019-03-23T23:30:11.669Z,31.93
2019-03-23T23:32:42.057Z,32.73
2019-03-23T23:35:12.407Z,30.57
2019-03-23T23:37:42.783Z,28.40
2019-03-23T23:40:13.133Z,32.77
2019-03-23T23:42:44.637Z,32.07
2019-03-23T23:45:16.116Z,39.70
2019-03-23T23:47:46.511Z,32.10
2019-03-23T23:50:16.911Z,28.33
2019-03-23T23:52:48.363Z,27.43
2019-03-23T23:55:18.878Z,43.30
2019-03-23T23:57:49.294Z,34.67
